Time,TemperatureF,DewpointF,PressureIn,WindDirection,WindDirectionDegrees,WindSpeedMPH,WindSpeedGustMPH,Humidity,HourlyPrecipIn,Conditions,Clouds,dailyrainin,SoftwareType,DateUTC
2013-06-12 00:00:00,69.0,65.3,29.85,West,259,0.0,1.0,88,0.00,,---,0.00,VWS V14.01,2013-06-12 05:00:00,
2013-06-12 00:01:00,68.7,65.0,29.85,West,259,0.0,0.0,88,0.00,,---,0.00,VWS V14.01,2013-06-12 05:01:00,
2013-06-12 00:07:00,68.3,64.6,29.85,West,259,0.0,0.0,88,0.00,,---,0.00,VWS V14.01,2013-06-12 05:07:00,
2013-06-12 00:12:00,67.9,64.5,29.85,West,259,0.0,0.0,89,0.00,,---,0.00,VWS V14.01,2013-06-12 05:12:00,
2013-06-12 00:17:00,67.5,64.2,29.85,West,259,0.0,0.0,89,0.00,,---,0.00,VWS V14.01,2013-06-12 05:17:00,
2013-06-12 00:22:00,67.3,64.3,29.85,West,259,0.0,0.0,90,0.00,,---,0.00,VWS V14.01,2013-06-12 05:22:00,
2013-06-12 00:27:00,67.1,64.1,29.85,West,259,0.0,0.0,90,0.00,,---,0.00,VWS V14.01,2013-06-12 05:27:00,
2013-06-12 00:30:00,67.0,64.0,29.85,West,259,0.0,0.0,90,0.00,,---,0.00,VWS V14.01,2013-06-12 05:30:00,
2013-06-12 00:32:00,66.7,63.7,29.85,West,259,0.0,0.0,90,0.00,,---,0.00,VWS V14.01,2013-06-12 05:32:00,
2013-06-12 00:37:00,66.4,63.7,29.84,West,259,0.0,0.0,91,0.00,,---,0.00,VWS V14.01,2013-06-12 05:37:00,
2013-06-12 00:42:00,66.3,63.9,29.85,West,259,0.0,0.0,92,0.00,,---,0.00,VWS V14.01,2013-06-12 05:42:00,
2013-06-12 00:47:00,66.2,64.1,29.85,West,259,0.0,0.0,93,0.00,,---,0.00,VWS V14.01,2013-06-12 05:47:00,
2013-06-12 00:52:00,66.0,63.9,29.84,West,259,0.0,0.0,93,0.00,,---,0.00,VWS V14.01,2013-06-12 05:52:00,
2013-06-12 00:57:00,65.8,63.7,29.84,West,259,0.0,0.0,93,0.00,,---,0.00,VWS V14.01,2013-06-12 05:57:00,
2013-06-12 01:00:00,65.8,63.7,29.84,West,259,0.0,0.0,93,0.00,,---,0.00,VWS V14.01,2013-06-12 06:00:00,
2013-06-12 01:02:00,65.6,63.5,29.84,West,259,0.0,0.0,93,0.00,,---,0.00,VWS V14.01,2013-06-12 06:02:00,
2013-06-12 01:07:00,65.7,63.9,29.84,West,259,0.0,0.0,94,0.00,,---,0.00,VWS V14.01,2013-06-12 06:07:00,
2013-06-12 01:12:00,65.6,63.8,29.84,West,259,0.0,0.0,94,0.00,,---,0.00,VWS V14.01,2013-06-12 06:12:00,
2013-06-12 01:17:00,65.4,63.6,29.83,West,259,0.0,0.0,94,0.00,,---,0.00,VWS V14.01,2013-06-12 06:17:00,
2013-06-12 01:22:00,65.3,63.5,29.83,West,259,0.0,0.0,94,0.00,,---,0.00,VWS V14.01,2013-06-12 06:22:00,
2013-06-12 01:27:00,64.9,63.1,29.84,West,259,0.0,0.0,94,0.00,,---,0.00,VWS V14.01,2013-06-12 06:27:00,
2013-06-12 01:30:00,64.9,63.1,29.84,West,259,0.0,0.0,94,0.00,,---,0.00,VWS V14.01,2013-06-12 06:30:00,
2013-06-12 01:32:00,64.7,63.2,29.84,West,259,0.0,0.0,95,0.00,,---,0.00,VWS V14.01,2013-06-12 06:32:00,
2013-06-12 01:37:00,64.5,63.0,29.83,West,259,0.0,0.0,95,0.00,,---,0.00,VWS V14.01,2013-06-12 06:37:00,
2013-06-12 01:42:00,64.2,62.7,29.83,West,259,0.0,0.0,95,0.00,,---,0.00,VWS V14.01,2013-06-12 06:42:00,
2013-06-12 01:47:00,64.0,62.5,29.84,West,259,0.0,0.0,95,0.00,,---,0.00,VWS V14.01,2013-06-12 06:47:00,
2013-06-12 01:52:00,63.8,62.3,29.83,West,259,0.0,0.0,95,0.00,,---,0.00,VWS V14.01,2013-06-12 06:52:00,
2013-06-12 01:57:00,63.7,62.2,29.83,West,259,0.0,0.0,95,0.00,,---,0.00,VWS V14.01,2013-06-12 06:57:00,
2013-06-12 02:00:00,63.8,62.3,29.83,West,259,0.0,0.0,95,0.00,,---,0.00,VWS V14.01,2013-06-12 07:00:00,
2013-06-12 02:02:00,63.8,62.3,29.83,West,259,0.0,0.0,95,0.00,,---,0.00,VWS V14.01,2013-06-12 07:02:00,
2013-06-12 02:07:00,63.6,62.2,29.83,West,259,0.0,0.0,95,0.00,,---,0.00,VWS V14.01,2013-06-12 07:07:00,
2013-06-12 02:12:00,63.5,62.3,29.83,West,259,0.0,0.0,96,0.00,,---,0.00,VWS V14.01,2013-06-12 07:12:00,
2013-06-12 02:17:00,63.6,62.7,29.83,West,259,0.0,0.0,97,0.00,,---,0.00,VWS V14.01,2013-06-12 07:17:00,
2013-06-12 02:22:00,63.5,62.3,29.84,West,259,0.0,0.0,96,0.00,,---,0.00,VWS V14.01,2013-06-12 07:22:00,
2013-06-12 02:27:00,63.4,62.2,29.83,West,259,0.0,0.0,96,0.00,,---,0.00,VWS V14.01,2013-06-12 07:27:00,
2013-06-12 02:30:00,63.4,62.2,29.83,West,259,0.0,0.0,96,0.00,,---,0.00,VWS V14.01,2013-06-12 07:30:00,
2013-06-12 02:32:00,63.7,62.8,29.83,West,259,0.0,0.0,97,0.00,,---,0.00,VWS V14.01,2013-06-12 07:32:00,
2013-06-12 02:37:00,63.8,62.9,29.83,West,259,0.0,0.0,97,0.00,,---,0.00,VWS V14.01,2013-06-12 07:37:00,
2013-06-12 02:42:00,63.9,63.0,29.83,West,259,0.0,0.0,97,0.00,,---,0.00,VWS V14.01,2013-06-12 07:42:00,
2013-06-12 02:47:00,63.7,62.8,29.83,West,259,0.0,0.0,97,0.00,,---,0.00,VWS V14.01,2013-06-12 07:47:00,
2013-06-12 02:52:00,63.7,62.8,29.83,West,259,0.0,0.0,97,0.00,,---,0.00,VWS V14.01,2013-06-12 07:52:00,
2013-06-12 02:57:00,63.5,62.6,29.83,West,259,0.0,0.0,97,0.00,,---,0.00,VWS V14.01,2013-06-12 07:57:00,
2013-06-12 03:00:00,63.5,62.6,29.83,West,259,0.0,0.0,97,0.00,,---,0.00,VWS V14.01,2013-06-12 08:00:00,
2013-06-12 03:02:00,63.4,62.5,29.83,West,259,0.0,0.0,97,0.00,,---,0.00,VWS V14.01,2013-06-12 08:02:00,
2013-06-12 03:07:00,63.6,62.7,29.84,West,259,0.0,0.0,97,0.00,,---,0.00,VWS V14.01,2013-06-12 08:07:00,
2013-06-12 03:12:00,63.8,63.2,29.84,West,259,0.0,0.0,98,0.00,,---,0.00,VWS V14.01,2013-06-12 08:12:00,
2013-06-12 03:17:00,63.8,63.2,29.84,West,259,0.0,0.0,98,0.00,,---,0.00,VWS V14.01,2013-06-12 08:17:00,
2013-06-12 03:22:00,63.6,62.7,29.84,West,259,0.0,0.0,97,0.00,,---,0.00,VWS V14.01,2013-06-12 08:22:00,
2013-06-12 03:27:00,63.6,63.0,29.84,West,259,0.0,0.0,98,0.00,,---,0.00,VWS V14.01,2013-06-12 08:27:00,
2013-06-12 03:30:00,63.5,62.9,29.84,West,259,0.0,0.0,98,0.00,,---,0.00,VWS V14.01,2013-06-12 08:30:00,
2013-06-12 03:32:00,63.4,62.8,29.84,West,259,0.0,0.0,98,0.00,,---,0.00,VWS V14.01,2013-06-12 08:32:00,
2013-06-12 03:37:00,63.1,62.2,29.85,West,259,0.0,0.0,97,0.00,,---,0.00,VWS V14.01,2013-06-12 08:37:00,
2013-06-12 03:42:00,62.9,62.0,29.85,West,259,0.0,0.0,97,0.00,,---,0.00,VWS V14.01,2013-06-12 08:42:00,
2013-06-12 03:47:00,62.7,61.8,29.85,West,259,0.0,0.0,97,0.00,,---,0.00,VWS V14.01,2013-06-12 08:47:00,
2013-06-12 03:52:00,62.7,62.1,29.86,West,259,0.0,0.0,98,0.00,,---,0.00,VWS V14.01,2013-06-12 08:52:00,
2013-06-12 03:57:00,62.6,62.0,29.86,West,259,0.0,0.0,98,0.00,,---,0.00,VWS V14.01,2013-06-12 08:57:00,
2013-06-12 04:00:00,62.6,62.0,29.86,West,259,0.0,0.0,98,0.00,,---,0.00,VWS V14.01,2013-06-12 09:00:00,
2013-06-12 04:02:00,62.4,61.5,29.86,West,259,0.0,0.0,97,0.00,,---,0.00,VWS V14.01,2013-06-12 09:02:00,
2013-06-12 04:07:00,62.5,61.9,29.86,West,259,0.0,0.0,98,0.00,,---,0.00,VWS V14.01,2013-06-12 09:07:00,
2013-06-12 04:12:00,62.8,62.2,29.86,West,259,0.0,0.0,98,0.00,,---,0.00,VWS V14.01,2013-06-12 09:12:00,
2013-06-12 04:17:00,62.8,62.2,29.86,West,259,0.0,0.0,98,0.00,,---,0.00,VWS V14.01,2013-06-12 09:17:00,
2013-06-12 04:22:00,62.5,61.9,29.87,West,259,0.0,0.0,98,0.00,,---,0.00,VWS V14.01,2013-06-12 09:22:00,
2013-06-12 04:27:00,62.6,62.0,29.87,West,259,0.0,0.0,98,0.00,,---,0.00,VWS V14.01,2013-06-12 09:27:00,
2013-06-12 04:30:00,62.6,62.0,29.87,West,259,0.0,0.0,98,0.00,,---,0.00,VWS V14.01,2013-06-12 09:30:00,
2013-06-12 04:32:00,62.5,61.9,29.87,West,259,0.0,0.0,98,0.00,,---,0.00,VWS V14.01,2013-06-12 09:32:00,
2013-06-12 04:37:00,62.4,61.8,29.87,West,259,0.0,0.0,98,0.00,,---,0.00,VWS V14.01,2013-06-12 09:37:00,
2013-06-12 04:42:00,62.5,61.9,29.87,West,259,0.0,0.0,98,0.00,,---,0.00,VWS V14.01,2013-06-12 09:42:00,
2013-06-12 04:46:00,62.8,62.2,29.86,West,259,0.0,0.0,98,0.00,,---,0.00,VWS V14.01,2013-06-12 09:46:00,
2013-06-12 04:51:00,63.0,62.4,29.86,West,259,0.0,0.0,98,0.00,,---,0.00,VWS V14.01,2013-06-12 09:51:00,
2013-06-12 04:56:00,62.9,62.3,29.87,West,259,0.0,0.0,98,0.00,,---,0.00,VWS V14.01,2013-06-12 09:56:00,
2013-06-12 05:00:00,62.9,62.3,29.87,West,259,0.0,0.0,98,0.00,,---,0.00,VWS V14.01,2013-06-12 10:00:00,
2013-06-12 05:01:00,63.0,62.7,29.87,West,259,0.0,0.0,99,0.00,,---,0.00,VWS V14.01,2013-06-12 10:01:00,
2013-06-12 05:06:00,62.9,62.3,29.86,West,259,0.0,0.0,98,0.00,,---,0.00,VWS V14.01,2013-06-12 10:06:00,
2013-06-12 05:11:00,62.9,62.3,29.86,West,259,0.0,0.0,98,0.00,,---,0.00,VWS V14.01,2013-06-12 10:11:00,
2013-06-12 05:16:00,62.8,62.2,29.87,West,259,0.0,0.0,98,0.00,,---,0.00,VWS V14.01,2013-06-12 10:16:00,
2013-06-12 05:21:00,62.7,62.1,29.86,West,259,0.0,0.0,98,0.00,,---,0.00,VWS V14.01,2013-06-12 10:21:00,
2013-06-12 05:26:00,62.7,62.1,29.86,West,259,0.0,0.0,98,0.00,,---,0.00,VWS V14.01,2013-06-12 10:26:00,
2013-06-12 05:30:00,62.7,62.1,29.86,West,259,0.0,0.0,98,0.00,,---,0.00,VWS V14.01,2013-06-12 10:30:00,
2013-06-12 05:31:00,62.8,62.2,29.86,West,259,0.0,0.0,98,0.00,,---,0.00,VWS V14.01,2013-06-12 10:31:00,
2013-06-12 05:36:00,63.1,62.8,29.86,West,259,0.0,0.0,99,0.00,,---,0.00,VWS V14.01,2013-06-12 10:36:00,
2013-06-12 05:41:00,63.3,63.0,29.85,West,259,0.0,0.0,99,0.00,,---,0.00,VWS V14.01,2013-06-12 10:41:00,
2013-06-12 05:46:00,63.5,63.2,29.86,West,259,0.0,0.0,99,0.00,,---,0.00,VWS V14.01,2013-06-12 10:46:00,
2013-06-12 05:51:00,63.6,63.3,29.86,West,259,0.0,0.0,99,0.00,,---,0.00,VWS V14.01,2013-06-12 10:51:00,
2013-06-12 05:56:00,63.7,63.4,29.86,West,259,0.0,0.0,99,0.00,,---,0.00,VWS V14.01,2013-06-12 10:56:00,
2013-06-12 06:00:00,63.8,63.5,29.86,West,259,0.0,0.0,99,0.00,,---,0.00,VWS V14.01,2013-06-12 11:00:00,
2013-06-12 06:01:00,63.9,63.6,29.86,West,259,0.0,0.0,99,0.00,,---,0.00,VWS V14.01,2013-06-12 11:01:00,
2013-06-12 06:06:00,64.2,63.9,29.87,West,259,0.0,0.0,99,0.00,,---,0.00,VWS V14.01,2013-06-12 11:06:00,
2013-06-12 06:11:00,64.5,64.2,29.87,West,259,0.0,0.0,99,0.00,,---,0.00,VWS V14.01,2013-06-12 11:11:00,
2013-06-12 06:16:00,64.7,64.4,29.87,West,259,0.0,0.0,99,0.00,,---,0.00,VWS V14.01,2013-06-12 11:16:00,
2013-06-12 06:21:00,64.9,64.6,29.88,West,259,0.0,0.0,99,0.00,,---,0.00,VWS V14.01,2013-06-12 11:21:00,
2013-06-12 06:26:00,65.3,65.0,29.88,West,259,0.0,0.0,99,0.00,,---,0.00,VWS V14.01,2013-06-12 11:26:00,
2013-06-12 06:30:00,65.4,65.1,29.88,West,259,0.0,0.0,99,0.00,,---,0.00,VWS V14.01,2013-06-12 11:30:00,
2013-06-12 06:31:00,65.6,65.3,29.88,West,259,0.0,0.0,99,0.00,,---,0.00,VWS V14.01,2013-06-12 11:31:00,
2013-06-12 06:36:00,65.8,65.5,29.88,West,259,0.0,0.0,99,0.00,,---,0.00,VWS V14.01,2013-06-12 11:36:00,
2013-06-12 06:41:00,66.2,65.9,29.88,West,259,0.0,0.0,99,0.00,,---,0.00,VWS V14.01,2013-06-12 11:41:00,
2013-06-12 06:46:00,66.5,66.2,29.88,West,259,0.0,0.0,99,0.00,,---,0.00,VWS V14.01,2013-06-12 11:46:00,
2013-06-12 06:51:00,67.0,66.7,29.88,West,259,0.0,0.0,99,0.00,,---,0.00,VWS V14.01,2013-06-12 11:51:00,
2013-06-12 06:56:00,67.7,67.4,29.88,West,259,0.0,0.0,99,0.00,,---,0.00,VWS V14.01,2013-06-12 11:56:00,
2013-06-12 07:00:00,68.0,67.7,29.88,West,259,0.0,0.0,99,0.00,,---,0.00,VWS V14.01,2013-06-12 12:00:00,
2013-06-12 07:01:00,68.7,68.4,29.88,West,259,0.0,0.0,99,0.00,,---,0.00,VWS V14.01,2013-06-12 12:01:00,
2013-06-12 07:06:00,69.3,69.0,29.87,West,259,0.0,0.0,99,0.00,,---,0.00,VWS V14.01,2013-06-12 12:06:00,
2013-06-12 07:11:00,69.8,69.5,29.86,West,259,0.0,0.0,99,0.00,,---,0.00,VWS V14.01,2013-06-12 12:11:00,
2013-06-12 07:16:00,70.0,69.1,29.86,West,259,0.0,0.0,97,0.00,,---,0.00,VWS V14.01,2013-06-12 12:16:00,
2013-06-12 07:21:00,70.3,69.1,29.85,West,259,0.0,0.0,96,0.00,,---,0.00,VWS V14.01,2013-06-12 12:21:00,
2013-06-12 07:26:00,70.4,68.6,29.85,WSW,258,0.0,0.0,94,0.00,,---,0.00,VWS V14.01,2013-06-12 12:26:00,
2013-06-12 07:30:00,70.4,68.3,29.86,West,259,0.0,0.0,93,0.00,,---,0.00,VWS V14.01,2013-06-12 12:30:00,
2013-06-12 07:31:00,70.6,67.8,29.86,West,259,0.0,0.0,91,0.00,,---,0.00,VWS V14.01,2013-06-12 12:31:00,
2013-06-12 07:36:00,71.1,67.7,29.86,West,259,0.0,0.0,89,0.00,,---,0.00,VWS V14.01,2013-06-12 12:36:00,
2013-06-12 07:41:00,71.2,66.8,29.86,North,4,0.0,0.0,86,0.00,,---,0.00,VWS V14.01,2013-06-12 12:41:00,
2013-06-12 07:46:00,71.3,67.2,29.85,North,4,0.0,0.0,87,0.00,,---,0.00,VWS V14.01,2013-06-12 12:46:00,
2013-06-12 07:51:00,71.4,67.7,29.86,North,9,0.0,0.0,88,0.00,,---,0.00,VWS V14.01,2013-06-12 12:51:00,
2013-06-12 07:56:00,71.5,67.4,29.87,North,9,0.0,0.0,87,0.00,,---,0.00,VWS V14.01,2013-06-12 12:56:00,
2013-06-12 08:00:00,71.5,67.4,29.87,NNE,18,0.0,0.0,87,0.00,,---,0.00,VWS V14.01,2013-06-12 13:00:00,
2013-06-12 08:01:00,71.7,67.3,29.87,NNE,19,0.0,0.0,86,0.00,,---,0.00,VWS V14.01,2013-06-12 13:01:00,
2013-06-12 08:06:00,72.0,66.2,29.87,NE,34,0.0,0.0,82,0.00,,---,0.00,VWS V14.01,2013-06-12 13:06:00,
2013-06-12 08:11:00,72.2,67.1,29.88,NE,34,0.0,0.0,84,0.00,,---,0.00,VWS V14.01,2013-06-12 13:11:00,
2013-06-12 08:16:00,72.2,67.4,29.88,NE,34,0.0,0.0,85,0.00,,---,0.00,VWS V14.01,2013-06-12 13:16:00,
2013-06-12 08:21:00,72.2,66.8,29.88,NE,34,0.0,0.0,83,0.00,,---,0.00,VWS V14.01,2013-06-12 13:21:00,
2013-06-12 08:26:00,72.6,67.2,29.88,NE,34,0.0,0.0,83,0.00,,---,0.00,VWS V14.01,2013-06-12 13:26:00,
2013-06-12 08:30:00,72.6,66.4,29.88,NE,34,0.0,1.0,81,0.00,,---,0.00,VWS V14.01,2013-06-12 13:30:00,
2013-06-12 08:31:00,73.0,67.2,29.88,NE,34,0.0,1.0,82,0.00,,---,0.00,VWS V14.01,2013-06-12 13:31:00,
2013-06-12 08:36:00,73.5,67.7,29.89,NW,313,0.0,1.0,82,0.00,,---,0.00,VWS V14.01,2013-06-12 13:36:00,
2013-06-12 08:41:00,73.5,66.2,29.89,NW,318,1.0,2.0,78,0.00,,---,0.00,VWS V14.01,2013-06-12 13:41:00,
2013-06-12 08:46:00,73.9,66.2,29.89,NE,49,0.0,2.0,77,0.00,,---,0.00,VWS V14.01,2013-06-12 13:46:00,
2013-06-12 08:51:00,74.9,67.2,29.89,East,101,0.0,2.0,77,0.00,,---,0.00,VWS V14.01,2013-06-12 13:51:00,
2013-06-12 08:56:00,75.0,66.2,29.89,NE,47,0.0,3.0,74,0.00,,---,0.00,VWS V14.01,2013-06-12 13:56:00,
2013-06-12 09:00:00,75.0,66.2,29.89,ESE,112,2.0,3.0,74,0.00,,---,0.00,VWS V14.01,2013-06-12 14:00:00,
2013-06-12 09:01:00,75.3,66.1,29.89,ESE,112,0.0,2.0,73,0.00,,---,0.00,VWS V14.01,2013-06-12 14:01:00,
2013-06-12 09:06:00,75.5,65.8,29.89,NW,309,2.0,2.0,72,0.00,,---,0.00,VWS V14.01,2013-06-12 14:06:00,
2013-06-12 09:11:00,75.0,66.6,29.89,West,263,0.0,2.0,75,0.00,,---,0.00,VWS V14.01,2013-06-12 14:11:00,
2013-06-12 09:16:00,75.0,68.1,29.88,West,263,0.0,2.0,79,0.00,,---,0.00,VWS V14.01,2013-06-12 14:16:00,
2013-06-12 09:21:00,74.6,67.3,29.87,NE,54,0.0,2.0,78,0.00,,---,0.00,VWS V14.01,2013-06-12 14:21:00,
2013-06-12 09:26:00,74.2,66.9,29.87,NE,54,0.0,2.0,78,0.00,,---,0.00,VWS V14.01,2013-06-12 14:26:00,
2013-06-12 09:30:00,74.2,68.0,29.86,NE,53,0.0,2.0,81,0.00,,---,0.00,VWS V14.01,2013-06-12 14:30:00,
2013-06-12 09:31:00,74.1,67.9,29.87,NE,39,0.0,0.0,81,0.00,,---,0.00,VWS V14.01,2013-06-12 14:31:00,
2013-06-12 09:36:00,73.8,66.9,29.87,North,5,0.0,2.0,79,0.00,,---,0.00,VWS V14.01,2013-06-12 14:36:00,
2013-06-12 09:41:00,73.5,67.0,29.88,North,350,0.0,2.0,80,0.00,,---,0.00,VWS V14.01,2013-06-12 14:41:00,
2013-06-12 09:46:00,73.5,67.7,29.86,East,84,0.0,2.0,82,0.00,,---,0.00,VWS V14.01,2013-06-12 14:46:00,
2013-06-12 09:51:00,73.3,66.4,29.88,West,261,1.0,2.0,79,0.00,,---,0.00,VWS V14.01,2013-06-12 14:51:00,
2013-06-12 09:56:00,73.7,67.5,29.87,West,260,0.0,2.0,81,0.00,,---,0.00,VWS V14.01,2013-06-12 14:56:00,
2013-06-12 10:00:00,73.7,67.9,29.87,SE,144,0.0,2.0,82,0.00,,---,0.00,VWS V14.01,2013-06-12 15:00:00,
2013-06-12 10:01:00,73.8,68.3,29.86,SE,144,0.0,0.0,83,0.00,,---,0.00,VWS V14.01,2013-06-12 15:01:00,
2013-06-12 10:06:00,73.8,68.3,29.87,NE,37,0.0,2.0,83,0.00,,---,0.00,VWS V14.01,2013-06-12 15:06:00,
2013-06-12 10:11:00,73.3,67.5,29.87,NW,316,0.0,2.0,82,0.00,,---,0.00,VWS V14.01,2013-06-12 15:11:00,
2013-06-12 10:16:00,73.1,68.3,29.88,NW,316,0.0,2.0,85,0.00,,---,0.00,VWS V14.01,2013-06-12 15:16:00,
2013-06-12 10:21:00,73.1,68.3,29.88,NW,316,0.0,2.0,85,0.00,,---,0.00,VWS V14.01,2013-06-12 15:21:00,
2013-06-12 10:26:00,73.2,68.8,29.89,NW,316,0.0,2.0,86,0.00,,---,0.00,VWS V14.01,2013-06-12 15:26:00,
2013-06-12 10:30:00,73.2,68.8,29.89,NW,316,0.0,2.0,86,0.00,,---,0.00,VWS V14.01,2013-06-12 15:30:00,
2013-06-12 10:31:00,73.3,68.9,29.88,NW,316,0.0,0.0,86,0.00,,---,0.00,VWS V14.01,2013-06-12 15:31:00,
2013-06-12 10:36:00,73.6,69.5,29.89,NW,316,0.0,0.0,87,0.00,,---,0.00,VWS V14.01,2013-06-12 15:36:00,
2013-06-12 10:41:00,73.7,69.3,29.88,NW,316,0.0,0.0,86,0.00,,---,0.00,VWS V14.01,2013-06-12 15:41:00,
2013-06-12 10:46:00,73.9,69.4,29.87,ESE,109,0.0,0.0,86,0.00,,---,0.00,VWS V14.01,2013-06-12 15:46:00,
2013-06-12 10:51:00,74.2,68.7,29.86,SW,219,0.0,3.0,83,0.00,,---,0.00,VWS V14.01,2013-06-12 15:51:00,
2013-06-12 10:56:00,74.3,68.8,29.86,ESE,114,0.0,3.0,83,0.00,,---,0.00,VWS V14.01,2013-06-12 15:56:00,
2013-06-12 11:00:00,74.4,69.2,29.86,ESE,114,0.0,3.0,84,0.00,,---,0.00,VWS V14.01,2013-06-12 16:00:00,
2013-06-12 11:01:00,74.7,69.2,29.87,SSW,212,1.0,2.0,83,0.00,,---,0.00,VWS V14.01,2013-06-12 16:01:00,
2013-06-12 11:06:00,75.1,67.8,29.88,SW,225,1.0,3.0,78,0.00,,---,0.00,VWS V14.01,2013-06-12 16:06:00,
2013-06-12 11:11:00,75.4,67.7,29.87,SSE,153,0.0,3.0,77,0.00,,---,0.00,VWS V14.01,2013-06-12 16:11:00,
2013-06-12 11:16:00,75.9,67.8,29.88,ESE,105,0.0,3.0,76,0.00,,---,0.00,VWS V14.01,2013-06-12 16:16:00,
2013-06-12 11:21:00,76.6,68.5,29.88,SSE,159,0.0,3.0,76,0.00,,---,0.00,VWS V14.01,2013-06-12 16:21:00,
2013-06-12 11:26:00,77.0,67.7,29.87,SSW,207,0.0,3.0,73,0.00,,---,0.00,VWS V14.01,2013-06-12 16:26:00,
2013-06-12 11:30:00,77.0,66.9,29.87,SE,132,2.0,4.0,71,0.00,,---,0.00,VWS V14.01,2013-06-12 16:30:00,
2013-06-12 11:31:00,76.8,67.1,29.87,South,184,0.0,5.0,72,0.00,,---,0.00,VWS V14.01,2013-06-12 16:31:00,
2013-06-12 11:36:00,77.2,68.3,29.86,WSW,246,0.0,5.0,74,0.00,,---,0.00,VWS V14.01,2013-06-12 16:36:00,
2013-06-12 11:41:00,77.5,66.9,29.86,ESE,110,2.0,5.0,70,0.00,,---,0.00,VWS V14.01,2013-06-12 16:41:00,
2013-06-12 11:46:00,77.9,68.2,29.85,WNW,287,1.0,5.0,72,0.00,,---,0.00,VWS V14.01,2013-06-12 16:46:00,
2013-06-12 11:51:00,78.9,67.0,29.85,East,82,1.0,5.0,67,0.00,,---,0.00,VWS V14.01,2013-06-12 16:51:00,
2013-06-12 11:56:00,79.4,67.5,29.85,SSE,147,1.0,6.0,67,0.00,,---,0.00,VWS V14.01,2013-06-12 16:56:00,
2013-06-12 12:00:00,79.7,68.2,29.85,SSE,153,3.0,6.0,68,0.00,,---,0.00,VWS V14.01,2013-06-12 17:00:00,
2013-06-12 12:01:00,80.0,68.1,29.84,SW,233,1.0,4.0,67,0.00,,---,0.00,VWS V14.01,2013-06-12 17:01:00,
2013-06-12 12:06:00,80.2,68.3,29.84,West,262,3.0,7.0,67,0.00,,---,0.00,VWS V14.01,2013-06-12 17:06:00,
2013-06-12 12:11:00,80.7,68.7,29.83,SSE,160,0.0,7.0,67,0.00,,---,0.00,VWS V14.01,2013-06-12 17:11:00,
2013-06-12 12:16:00,81.3,68.4,29.83,WSW,242,1.0,7.0,65,0.00,,---,0.00,VWS V14.01,2013-06-12 17:16:00,
2013-06-12 12:21:00,81.4,68.1,29.82,WSW,239,2.0,7.0,64,0.00,,---,0.00,VWS V14.01,2013-06-12 17:21:00,
2013-06-12 12:26:00,80.9,67.6,29.82,West,277,1.0,8.0,64,0.00,,---,0.00,VWS V14.01,2013-06-12 17:26:00,
2013-06-12 12:30:00,80.7,68.3,29.82,WSW,245,0.0,8.0,66,0.00,,---,0.00,VWS V14.01,2013-06-12 17:30:00,
2013-06-12 12:31:00,80.6,68.2,29.81,NNW,345,2.0,5.0,66,0.00,,---,0.00,VWS V14.01,2013-06-12 17:31:00,
2013-06-12 12:36:00,80.5,67.2,29.81,West,263,1.0,6.0,64,0.00,,---,0.00,VWS V14.01,2013-06-12 17:36:00,
2013-06-12 12:41:00,80.0,67.2,29.80,WSW,255,2.0,6.0,65,0.00,,---,0.00,VWS V14.01,2013-06-12 17:41:00,
2013-06-12 12:46:00,79.6,67.2,29.80,NW,322,2.0,7.0,66,0.00,,---,0.00,VWS V14.01,2013-06-12 17:46:00,
2013-06-12 12:51:00,79.5,67.6,29.79,SW,215,0.0,7.0,67,0.00,,---,0.00,VWS V14.01,2013-06-12 17:51:00,
2013-06-12 12:56:00,79.8,67.4,29.79,SW,229,1.0,7.0,66,0.00,,---,0.00,VWS V14.01,2013-06-12 17:56:00,
2013-06-12 13:00:00,79.9,68.0,29.79,SE,124,0.0,7.0,67,0.00,,---,0.00,VWS V14.01,2013-06-12 18:00:00,
2013-06-12 13:01:00,80.1,68.2,29.78,WSW,237,2.0,5.0,67,0.00,,---,0.00,VWS V14.01,2013-06-12 18:01:00,
2013-06-12 13:06:00,80.4,67.6,29.79,West,259,2.0,5.0,65,0.00,,---,0.00,VWS V14.01,2013-06-12 18:06:00,
2013-06-12 13:11:00,80.3,67.5,29.79,ESE,108,4.0,6.0,65,0.00,,---,0.00,VWS V14.01,2013-06-12 18:11:00,
2013-06-12 13:16:00,80.3,68.3,29.80,SW,228,0.0,6.0,67,0.00,,---,0.00,VWS V14.01,2013-06-12 18:16:00,
2013-06-12 13:21:00,80.4,68.4,29.80,East,82,1.0,6.0,67,0.00,,---,0.00,VWS V14.01,2013-06-12 18:21:00,
2013-06-12 13:26:00,80.7,68.7,29.79,NE,44,0.0,6.0,67,0.00,,---,0.00,VWS V14.01,2013-06-12 18:26:00,
2013-06-12 13:30:00,80.7,68.3,29.79,WSW,240,6.0,6.0,66,0.00,,---,0.00,VWS V14.01,2013-06-12 18:30:00,
2013-06-12 13:31:00,80.7,68.7,29.82,WNW,297,2.0,7.0,67,0.00,,---,0.00,VWS V14.01,2013-06-12 18:31:00,
2013-06-12 13:36:00,81.1,69.1,29.81,SSW,207,2.0,7.0,67,0.00,,---,0.00,VWS V14.01,2013-06-12 18:36:00,
2013-06-12 13:41:00,81.5,69.1,29.79,NW,304,2.0,7.0,66,0.00,,---,0.00,VWS V14.01,2013-06-12 18:41:00,
2013-06-12 13:46:00,81.6,68.7,29.81,SW,226,0.0,7.0,65,0.00,,---,0.00,VWS V14.01,2013-06-12 18:46:00,
2013-06-12 13:51:00,82.2,70.2,29.82,WSW,242,2.0,7.0,67,0.00,,---,0.00,VWS V14.01,2013-06-12 18:51:00,
2013-06-12 13:56:00,82.4,69.5,29.82,WSW,246,4.0,7.0,65,0.00,,---,0.00,VWS V14.01,2013-06-12 18:56:00,
2013-06-12 14:00:00,82.4,69.0,29.82,West,276,2.0,7.0,64,0.00,,---,0.00,VWS V14.01,2013-06-12 19:00:00,
2013-06-12 14:01:00,82.3,70.3,29.81,WSW,254,2.0,3.0,67,0.00,,---,0.00,VWS V14.01,2013-06-12 19:01:00,
2013-06-12 14:06:00,82.6,70.5,29.80,North,1,0.0,3.0,67,0.00,,---,0.00,VWS V14.01,2013-06-12 19:06:00,
2013-06-12 14:11:00,82.6,71.0,29.82,WSW,252,1.0,3.0,68,0.00,,---,0.00,VWS V14.01,2013-06-12 19:11:00,
2013-06-12 14:16:00,82.4,69.9,29.81,West,274,2.0,3.0,66,0.00,,---,0.00,VWS V14.01,2013-06-12 19:16:00,
2013-06-12 14:21:00,82.0,70.0,29.81,WSW,242,1.0,3.0,67,0.00,,---,0.00,VWS V14.01,2013-06-12 19:21:00,
2013-06-12 14:26:00,82.0,70.4,29.79,WSW,257,0.0,3.0,68,0.00,,---,0.00,VWS V14.01,2013-06-12 19:26:00,
2013-06-12 14:30:00,81.8,69.3,29.78,ESE,108,1.0,3.0,66,0.00,,---,0.00,VWS V14.01,2013-06-12 19:30:00,
2013-06-12 14:31:00,81.5,69.9,29.78,ESE,108,0.0,1.0,68,0.00,,---,0.00,VWS V14.01,2013-06-12 19:31:00,
2013-06-12 14:36:00,81.2,71.3,29.79,NW,308,0.0,2.0,72,0.00,,---,0.00,VWS V14.01,2013-06-12 19:36:00,
2013-06-12 14:41:00,80.9,73.4,29.79,NW,308,0.0,2.0,78,0.00,,---,0.00,VWS V14.01,2013-06-12 19:41:00,
2013-06-12 14:46:00,80.2,72.3,29.80,NW,308,0.0,2.0,77,0.00,,---,0.00,VWS V14.01,2013-06-12 19:46:00,
2013-06-12 14:51:00,79.8,72.7,29.79,North,358,0.0,2.0,79,0.00,,---,0.00,VWS V14.01,2013-06-12 19:51:00,
2013-06-12 14:56:00,79.5,73.2,29.79,North,358,0.0,2.0,81,0.00,,---,0.00,VWS V14.01,2013-06-12 19:56:00,
2013-06-12 15:00:00,79.4,72.7,29.80,West,281,1.0,2.0,80,0.00,,---,0.00,VWS V14.01,2013-06-12 20:00:00,
2013-06-12 15:01:00,79.4,72.7,29.79,WNW,285,0.0,1.0,80,0.00,,---,0.00,VWS V14.01,2013-06-12 20:01:00,
2013-06-12 15:06:00,79.2,72.9,29.77,ENE,72,0.0,1.0,81,0.00,,---,0.00,VWS V14.01,2013-06-12 20:06:00,
2013-06-12 15:11:00,79.0,73.4,29.77,ENE,72,0.0,1.0,83,0.00,,---,0.00,VWS V14.01,2013-06-12 20:11:00,
2013-06-12 15:16:00,78.6,73.0,29.75,ENE,72,0.0,1.0,83,0.00,,---,0.00,VWS V14.01,2013-06-12 20:16:00,
2013-06-12 15:21:00,78.5,72.9,29.76,ENE,72,0.0,1.0,83,0.00,,---,0.00,VWS V14.01,2013-06-12 20:21:00,
2013-06-12 15:26:00,78.4,72.4,29.75,ENE,72,0.0,1.0,82,0.00,,---,0.00,VWS V14.01,2013-06-12 20:26:00,
2013-06-12 15:30:00,78.3,72.7,29.74,ENE,72,0.0,1.0,83,0.00,,---,0.00,VWS V14.01,2013-06-12 20:30:00,
2013-06-12 15:31:00,77.8,72.6,29.72,ENE,72,0.0,1.0,84,0.00,,---,0.00,VWS V14.01,2013-06-12 20:31:00,
2013-06-12 15:36:00,77.4,72.2,29.74,NNW,339,1.0,2.0,84,0.00,,---,0.00,VWS V14.01,2013-06-12 20:36:00,
2013-06-12 15:41:00,77.4,72.5,29.74,NNW,339,0.0,2.0,85,0.00,,---,0.00,VWS V14.01,2013-06-12 20:41:00,
2013-06-12 15:46:00,77.5,71.9,29.74,NNW,342,1.0,2.0,83,0.00,,---,0.00,VWS V14.01,2013-06-12 20:46:00,
2013-06-12 15:51:00,77.3,72.1,29.75,NNW,335,0.0,2.0,84,0.00,,---,0.00,VWS V14.01,2013-06-12 20:51:00,
2013-06-12 15:56:00,77.1,72.2,29.74,North,356,1.0,2.0,85,0.00,,---,0.00,VWS V14.01,2013-06-12 20:56:00,
2013-06-12 16:00:00,77.0,72.2,29.74,North,356,0.0,2.0,85,0.00,,---,0.00,VWS V14.01,2013-06-12 21:00:00,
2013-06-12 16:01:00,76.7,72.2,29.75,North,356,1.0,1.0,86,0.00,,---,0.00,VWS V14.01,2013-06-12 21:01:00,
2013-06-12 16:06:00,76.3,72.2,29.76,NW,326,0.0,1.0,87,0.00,,---,0.00,VWS V14.01,2013-06-12 21:06:00,
2013-06-12 16:11:00,76.1,72.3,29.75,NNE,20,0.0,1.0,88,0.00,,---,0.00,VWS V14.01,2013-06-12 21:11:00,
2013-06-12 16:16:00,76.1,72.6,29.75,NNE,20,0.0,1.0,89,0.00,,---,0.00,VWS V14.01,2013-06-12 21:16:00,
2013-06-12 16:21:00,76.3,73.2,29.76,NNE,20,0.0,1.0,90,0.00,,---,0.00,VWS V14.01,2013-06-12 21:21:00,
2013-06-12 16:26:00,76.9,74.1,29.78,NNE,14,0.0,1.0,91,0.00,,---,0.00,VWS V14.01,2013-06-12 21:26:00,
2013-06-12 16:30:00,77.1,72.6,29.78,SW,228,1.0,5.0,86,0.00,,---,0.00,VWS V14.01,2013-06-12 21:30:00,
2013-06-12 16:31:00,77.6,72.7,29.79,SSW,204,0.0,4.0,85,0.00,,---,0.00,VWS V14.01,2013-06-12 21:31:00,
2013-06-12 16:36:00,78.7,72.8,29.79,West,276,2.0,6.0,82,0.00,,---,0.00,VWS V14.01,2013-06-12 21:36:00,
2013-06-12 16:41:00,79.3,73.0,29.78,East,86,1.0,6.0,81,0.00,,---,0.00,VWS V14.01,2013-06-12 21:41:00,
2013-06-12 16:46:00,79.6,73.3,29.78,NE,39,1.0,6.0,81,0.00,,---,0.00,VWS V14.01,2013-06-12 21:46:00,
2013-06-12 16:51:00,79.1,72.4,29.77,ESE,114,0.0,6.0,80,0.00,,---,0.00,VWS V14.01,2013-06-12 21:51:00,
2013-06-12 16:56:00,78.4,71.7,29.77,ENE,75,1.0,6.0,80,0.00,,---,0.00,VWS V14.01,2013-06-12 21:56:00,
2013-06-12 17:00:00,78.2,71.5,29.76,NE,55,1.0,6.0,80,0.00,,---,0.00,VWS V14.01,2013-06-12 22:00:00,
2013-06-12 17:01:00,78.1,71.8,29.76,NE,47,1.0,2.0,81,0.00,,---,0.00,VWS V14.01,2013-06-12 22:01:00,
2013-06-12 17:06:00,78.1,72.2,29.76,ENE,77,2.0,4.0,82,0.00,,---,0.00,VWS V14.01,2013-06-12 22:06:00,
2013-06-12 17:11:00,77.7,71.0,29.76,East,79,5.0,8.0,80,0.00,,---,0.00,VWS V14.01,2013-06-12 22:11:00,
2013-06-12 17:16:00,77.2,70.2,29.76,NNW,333,1.0,8.0,79,0.00,,---,0.00,VWS V14.01,2013-06-12 22:16:00,
2013-06-12 17:21:00,77.0,70.4,29.75,East,82,1.0,8.0,80,0.00,,---,0.00,VWS V14.01,2013-06-12 22:21:00,
2013-06-12 17:26:00,76.9,70.3,29.75,ESE,114,1.0,8.0,80,0.00,,---,0.00,VWS V14.01,2013-06-12 22:26:00,
2013-06-12 17:30:00,76.9,70.6,29.75,ENE,67,2.0,8.0,81,0.00,,---,0.00,VWS V14.01,2013-06-12 22:30:00,
2013-06-12 17:31:00,76.9,70.6,29.75,SSE,149,1.0,2.0,81,0.00,,---,0.00,VWS V14.01,2013-06-12 22:31:00,
2013-06-12 17:36:00,77.3,70.7,29.74,NE,44,2.0,5.0,80,0.00,,---,0.00,VWS V14.01,2013-06-12 22:36:00,
2013-06-12 17:41:00,77.5,70.5,29.74,NNE,32,5.0,6.0,79,0.00,,---,0.00,VWS V14.01,2013-06-12 22:41:00,
2013-06-12 17:46:00,77.8,70.4,29.74,NW,318,2.0,6.0,78,0.00,,---,0.00,VWS V14.01,2013-06-12 22:46:00,
2013-06-12 17:51:00,77.9,70.5,29.74,ESE,105,1.0,6.0,78,0.00,,---,0.00,VWS V14.01,2013-06-12 22:51:00,
2013-06-12 17:56:00,77.8,70.0,29.73,ENE,74,1.0,6.0,77,0.00,,---,0.00,VWS V14.01,2013-06-12 22:56:00,
2013-06-12 18:00:00,77.6,70.6,29.73,NE,53,2.0,6.0,79,0.00,,---,0.00,VWS V14.01,2013-06-12 23:00:00,
2013-06-12 18:01:00,77.5,70.1,29.73,ESE,112,3.0,3.0,78,0.00,,---,0.00,VWS V14.01,2013-06-12 23:01:00,
2013-06-12 18:06:00,77.2,70.2,29.73,East,94,1.0,4.0,79,0.00,,---,0.00,VWS V14.01,2013-06-12 23:06:00,
2013-06-12 18:11:00,77.4,70.4,29.73,NE,37,2.0,4.0,79,0.00,,---,0.00,VWS V14.01,2013-06-12 23:11:00,
2013-06-12 18:16:00,77.2,69.8,29.72,ENE,70,1.0,5.0,78,0.00,,---,0.00,VWS V14.01,2013-06-12 23:16:00,
2013-06-12 18:21:00,77.1,70.1,29.72,ENE,57,3.0,5.0,79,0.00,,---,0.00,VWS V14.01,2013-06-12 23:21:00,
2013-06-12 18:26:00,76.7,69.7,29.72,SW,233,0.0,5.0,79,0.00,,---,0.00,VWS V14.01,2013-06-12 23:26:00,
2013-06-12 18:30:00,76.6,69.6,29.72,ENE,70,2.0,5.0,79,0.00,,---,0.00,VWS V14.01,2013-06-12 23:30:00,
2013-06-12 18:31:00,76.1,69.5,29.72,ENE,66,1.0,5.0,80,0.00,,---,0.00,VWS V14.01,2013-06-12 23:31:00,
2013-06-12 18:36:00,75.5,68.9,29.73,ENE,72,2.0,7.0,80,0.00,,---,0.00,VWS V14.01,2013-06-12 23:36:00,
2013-06-12 18:41:00,75.0,68.8,29.73,ENE,70,4.0,7.0,81,0.00,,---,0.00,VWS V14.01,2013-06-12 23:41:00,
2013-06-12 18:46:00,74.5,68.7,29.73,SE,146,0.0,7.0,82,0.00,,---,0.00,VWS V14.01,2013-06-12 23:46:00,
2013-06-12 18:51:00,74.0,68.2,29.73,NNE,27,1.0,7.0,82,0.00,,---,0.00,VWS V14.01,2013-06-12 23:51:00,
2013-06-12 18:56:00,73.6,68.1,29.73,SE,136,1.0,7.0,83,0.00,,---,0.00,VWS V14.01,2013-06-12 23:56:00,
2013-06-12 19:00:00,73.5,68.0,29.73,South,190,2.0,7.0,83,0.00,,---,0.00,VWS V14.01,2013-06-13 00:00:00,
2013-06-12 19:01:00,73.3,67.8,29.73,SE,128,3.0,4.0,83,0.00,,---,0.00,VWS V14.01,2013-06-13 00:01:00,
2013-06-12 19:06:00,72.9,67.4,29.73,ENE,75,1.0,11.0,83,0.00,,---,0.00,VWS V14.01,2013-06-13 00:06:00,
2013-06-12 19:11:00,72.3,67.2,29.72,NNE,32,2.0,11.0,84,0.00,,---,0.00,VWS V14.01,2013-06-13 00:11:00,
2013-06-12 19:16:00,71.7,66.6,29.72,SW,225,1.0,11.0,84,0.00,,---,0.00,VWS V14.01,2013-06-13 00:16:00,
2013-06-12 19:21:00,71.1,66.4,29.72,ENE,77,1.0,11.0,85,0.00,,---,0.00,VWS V14.01,2013-06-13 00:21:00,
2013-06-12 19:26:00,70.6,66.2,29.72,ESE,117,1.0,11.0,86,0.00,,---,0.00,VWS V14.01,2013-06-13 00:26:00,
2013-06-12 19:30:00,70.5,66.4,29.71,East,85,1.0,11.0,87,0.00,,---,0.00,VWS V14.01,2013-06-13 00:30:00,
2013-06-12 19:31:00,70.3,66.2,29.70,NNE,25,3.0,4.0,87,0.00,,---,0.00,VWS V14.01,2013-06-13 00:31:00,
2013-06-12 19:36:00,70.0,66.3,29.71,East,88,0.0,4.0,88,0.00,,---,0.00,VWS V14.01,2013-06-13 00:36:00,
2013-06-12 19:40:00,69.9,66.2,29.70,East,101,0.0,4.0,88,0.00,,---,0.00,VWS V14.01,2013-06-13 00:40:00,
2013-06-12 19:45:00,69.8,66.1,29.70,East,93,2.0,5.0,88,0.00,,---,0.00,VWS V14.01,2013-06-13 00:45:00,
2013-06-12 19:50:00,69.7,66.0,29.71,East,96,1.0,5.0,88,0.00,,---,0.00,VWS V14.01,2013-06-13 00:50:00,
2013-06-12 19:55:00,69.7,66.0,29.70,ESE,115,0.0,5.0,88,0.00,,---,0.00,VWS V14.01,2013-06-13 00:55:00,
2013-06-12 20:00:00,69.6,65.9,29.70,NNE,25,0.0,1.0,88,0.00,,---,0.00,VWS V14.01,2013-06-13 01:00:00,
2013-06-12 20:05:00,69.5,65.8,29.70,ESE,111,0.0,2.0,88,0.00,,---,0.00,VWS V14.01,2013-06-13 01:05:00,
2013-06-12 20:10:00,69.4,66.0,29.70,WSW,243,0.0,2.0,89,0.00,,---,0.00,VWS V14.01,2013-06-13 01:10:00,
2013-06-12 20:15:00,69.3,65.9,29.70,SE,139,1.0,2.0,89,0.00,,---,0.00,VWS V14.01,2013-06-13 01:15:00,
2013-06-12 20:20:00,69.2,65.8,29.70,ENE,66,0.0,2.0,89,0.00,,---,0.00,VWS V14.01,2013-06-13 01:20:00,
2013-06-12 20:25:00,69.2,65.8,29.70,ENE,66,1.0,3.0,89,0.00,,---,0.00,VWS V14.01,2013-06-13 01:25:00,
2013-06-12 20:30:00,69.3,65.6,29.70,SE,146,0.0,2.0,88,0.00,,---,0.00,VWS V14.01,2013-06-13 01:30:00,
2013-06-12 20:35:00,69.3,65.6,29.69,ESE,115,0.0,4.0,88,0.00,,---,0.00,VWS V14.01,2013-06-13 01:35:00,
2013-06-12 20:40:00,69.3,65.6,29.69,NE,42,2.0,4.0,88,0.00,,---,0.00,VWS V14.01,2013-06-13 01:40:00,
2013-06-12 20:45:00,69.3,65.6,29.69,East,98,0.0,6.0,88,0.00,,---,0.00,VWS V14.01,2013-06-13 01:45:00,
2013-06-12 20:50:00,69.3,65.6,29.68,SE,129,2.0,6.0,88,0.00,,---,0.00,VWS V14.01,2013-06-13 01:50:00,
2013-06-12 20:55:00,69.3,65.6,29.67,SSE,148,0.0,6.0,88,0.00,,---,0.00,VWS V14.01,2013-06-13 01:55:00,
2013-06-12 21:00:00,69.2,65.5,29.67,ENE,63,1.0,1.0,88,0.00,,---,0.00,VWS V14.01,2013-06-13 02:00:00,
2013-06-12 21:05:00,69.1,65.7,29.67,ENE,64,0.0,5.0,89,0.00,,---,0.00,VWS V14.01,2013-06-13 02:05:00,
2013-06-12 21:10:00,68.9,65.5,29.66,East,84,1.0,5.0,89,0.00,,---,0.00,VWS V14.01,2013-06-13 02:10:00,
2013-06-12 21:15:00,68.6,65.6,29.65,ENE,63,0.0,5.0,90,0.00,,---,0.00,VWS V14.01,2013-06-13 02:15:00,
2013-06-12 21:20:00,68.5,65.5,29.65,ENE,60,0.0,5.0,90,0.00,,---,0.00,VWS V14.01,2013-06-13 02:20:00,
2013-06-12 21:25:00,68.3,65.6,29.64,ESE,115,1.0,5.0,91,0.00,,---,0.00,VWS V14.01,2013-06-13 02:25:00,
2013-06-12 21:30:00,68.3,65.6,29.65,SE,136,2.0,3.0,91,0.00,,---,0.00,VWS V14.01,2013-06-13 02:30:00,
2013-06-12 21:35:00,68.3,65.6,29.67,West,269,0.0,4.0,91,0.00,,---,0.00,VWS V14.01,2013-06-13 02:35:00,
2013-06-12 21:40:00,68.4,65.7,29.66,ENE,78,1.0,4.0,91,0.00,,---,0.00,VWS V14.01,2013-06-13 02:40:00,
2013-06-12 21:45:00,68.4,65.7,29.64,NNE,15,2.0,4.0,91,0.00,,---,0.00,VWS V14.01,2013-06-13 02:45:00,
2013-06-12 21:50:00,68.4,65.7,29.65,East,82,1.0,4.0,91,0.00,,---,0.00,VWS V14.01,2013-06-13 02:50:00,
2013-06-12 21:55:00,68.3,65.6,29.63,ESE,103,1.0,6.0,91,0.00,,---,0.00,VWS V14.01,2013-06-13 02:55:00,
2013-06-12 22:00:00,68.3,65.6,29.62,ESE,115,0.0,4.0,91,0.00,,---,0.00,VWS V14.01,2013-06-13 03:00:00,
2013-06-12 22:05:00,68.3,65.6,29.63,North,4,1.0,4.0,91,0.00,,---,0.00,VWS V14.01,2013-06-13 03:05:00,
2013-06-12 22:10:00,68.3,65.6,29.63,SSW,201,0.0,5.0,91,0.00,,---,0.00,VWS V14.01,2013-06-13 03:10:00,
2013-06-12 22:15:00,68.3,65.6,29.63,NE,53,2.0,5.0,91,0.00,,---,0.00,VWS V14.01,2013-06-13 03:15:00,
2013-06-12 22:20:00,68.2,65.8,29.61,East,94,0.0,5.0,92,0.00,,---,0.00,VWS V14.01,2013-06-13 03:20:00,
2013-06-12 22:25:00,68.1,65.7,29.60,North,359,2.0,5.0,92,0.00,,---,0.00,VWS V14.01,2013-06-13 03:25:00,
2013-06-12 22:30:00,67.9,65.5,29.61,NNE,29,0.0,4.0,92,0.00,,---,0.00,VWS V14.01,2013-06-13 03:30:00,
2013-06-12 22:35:00,67.9,65.8,29.60,NW,318,1.0,6.0,93,0.00,,---,0.00,VWS V14.01,2013-06-13 03:35:00,
2013-06-12 22:40:00,67.8,65.7,29.61,NE,51,0.0,6.0,93,0.01,,---,0.01,VWS V14.01,2013-06-13 03:40:00,
2013-06-12 22:45:00,67.7,65.6,29.61,SE,137,0.0,6.0,93,0.01,,---,0.01,VWS V14.01,2013-06-13 03:45:00,
2013-06-12 22:50:00,67.7,65.9,29.60,East,79,0.0,6.0,94,0.02,,---,0.02,VWS V14.01,2013-06-13 03:50:00,
2013-06-12 22:55:00,67.5,65.7,29.60,SSE,150,1.0,6.0,94,0.04,,---,0.04,VWS V14.01,2013-06-13 03:55:00,
2013-06-12 23:00:00,67.3,65.8,29.59,NE,39,2.0,7.0,95,0.06,,---,0.01,VWS V14.01,2013-06-13 04:00:00,
2013-06-12 23:01:00,67.3,65.8,29.59,NE,39,0.0,7.0,95,0.06,,---,0.01,VWS V14.01,2013-06-13 04:01:00,
2013-06-12 23:06:00,67.1,65.6,29.58,NNE,24,2.0,7.0,95,0.07,,---,0.02,VWS V14.01,2013-06-13 04:06:00,
2013-06-12 23:11:00,67.0,65.5,29.56,ENE,57,5.0,7.0,95,0.08,,---,0.03,VWS V14.01,2013-06-13 04:11:00,
2013-06-12 23:16:00,66.9,65.7,29.57,ESE,113,1.0,7.0,96,0.09,,---,0.04,VWS V14.01,2013-06-13 04:16:00,
2013-06-12 23:21:00,66.8,65.6,29.57,NNE,18,0.0,7.0,96,0.13,,---,0.08,VWS V14.01,2013-06-13 04:21:00,
2013-06-12 23:26:00,66.8,65.6,29.58,West,259,4.0,7.0,96,0.16,,---,0.11,VWS V14.01,2013-06-13 04:26:00,
2013-06-12 23:30:00,66.8,65.6,29.58,ESE,103,4.0,7.0,96,0.21,,---,0.16,VWS V14.01,2013-06-13 04:30:00,
2013-06-12 23:31:00,66.8,65.9,29.61,SSW,194,2.0,8.0,97,0.36,,---,0.31,VWS V14.01,2013-06-13 04:31:00,
2013-06-12 23:36:00,66.8,65.9,29.63,SSE,152,0.0,8.0,97,0.68,,---,0.64,VWS V14.01,2013-06-13 04:36:00,
2013-06-12 23:41:00,66.7,65.8,29.64,East,90,1.0,8.0,97,0.82,,---,0.77,VWS V14.01,2013-06-13 04:41:00,
2013-06-12 23:46:00,66.8,65.9,29.62,SW,214,1.0,8.0,97,0.90,,---,0.85,VWS V14.01,2013-06-13 04:46:00,
2013-06-12 23:51:00,66.9,66.3,29.60,NW,323,0.0,8.0,98,0.95,,---,0.90,VWS V14.01,2013-06-13 04:51:00,
2013-06-12 23:56:00,66.9,66.3,29.60,WSW,238,0.0,8.0,98,1.01,,---,0.96,VWS V14.01,2013-06-13 04:56:00,